Time;durP1;ratioP1;P1;durP2;ratioP2;P2;SDS_P1;SDS_P2;PMS_P1;PMS_P2;Temp;Humidity;BMP_temperature;BMP_pressure;BME280_temperature;BME280_humidity;BME280_pressure;Samples;Min_cycle;Max_cycle;Signal;HPM_P1;HPM_P2
2022/04/07 00:00:31;;;;;;;4.65;2.20;;;;;;;-148.16;100.00;58328.31;4808674;29;20065;-63
2022/04/07 00:03:16;;;;;;;4.03;2.13;;;;;;;-148.16;100.00;58328.31;4823431;29;20046;-63
2022/04/07 00:06:01;;;;;;;3.97;2.10;;;;;;;-148.16;100.00;58328.31;4809924;29;20046;-60
2022/04/07 00:08:46;;;;;;;6.97;2.85;;;;;;;-148.16;100.00;58328.31;4809600;29;20050;-62
2022/04/07 00:11:31;;;;;;;3.38;2.13;;;;;;;-148.16;100.00;58328.31;4808904;29;20079;-62
2022/04/07 00:14:15;;;;;;;4.60;2.38;;;;;;;-148.16;100.00;58328.31;4823184;29;20074;-62
2022/04/07 00:17:00;;;;;;;4.22;2.33;;;;;;;-148.16;100.00;58328.31;4823080;29;20054;-62
2022/04/07 00:19:45;;;;;;;4.25;2.50;;;;;;;-148.16;100.00;58328.31;4828344;29;20046;-63
2022/04/07 00:22:30;;;;;;;3.15;2.17;;;;;;;-148.16;100.00;58328.31;4815063;29;20139;-62
2022/04/07 00:25:14;;;;;;;3.40;2.42;;;;;;;-148.16;100.00;58328.31;4841235;29;20126;-63
2022/04/07 00:27:59;;;;;;;3.88;2.40;;;;;;;-148.16;100.00;58328.31;4841068;29;20050;-62
2022/04/07 00:30:44;;;;;;;6.78;3.25;;;;;;;-148.16;100.00;58328.31;4827392;29;20082;-63
2022/04/07 00:33:29;;;;;;;6.47;2.97;;;;;;;-148.16;100.00;58328.31;4841382;29;20084;-61
2022/04/07 00:36:13;;;;;;;4.55;3.05;;;;;;;-148.16;100.00;58328.31;4841639;29;20406;-62
2022/04/07 00:38:58;;;;;;;7.05;3.20;;;;;;;-148.16;100.00;58328.31;4827843;29;20144;-64
2022/04/07 00:41:45;;;;;;;3.72;2.60;;;;;;;-148.16;100.00;58328.31;4827418;29;20463;-63
2022/04/07 00:44:30;;;;;;;4.63;3.03;;;;;;;-148.16;100.00;58328.31;4826634;29;20114;-60
2022/04/07 00:47:15;;;;;;;5.57;3.63;;;;;;;-148.16;100.00;58328.31;4841145;29;20053;-64
2022/04/07 00:50:00;;;;;;;4.82;3.10;;;;;;;-148.16;100.00;58328.31;4841663;29;20115;-63
2022/04/07 00:52:49;;;;;;;5.03;2.65;;;;;;;-148.16;100.00;58328.31;4814840;29;20430;-63
2022/04/07 00:55:36;;;;;;;4.18;3.00;;;;;;;-148.16;100.00;58328.31;4840810;29;20046;-62
2022/04/07 00:58:22;;;;;;;5.65;3.17;;;;;;;-148.16;100.00;58328.31;4827082;29;20045;-62
2022/04/07 01:01:08;;;;;;;4.20;3.03;;;;;;;-148.16;100.00;58328.31;4840816;29;20058;-62
2022/04/07 01:03:56;;;;;;;8.15;4.07;;;;;;;-148.16;100.00;58328.31;4840675;29;20049;-62
2022/04/07 01:06:42;;;;;;;5.68;3.97;;;;;;;-148.16;100.00;58328.31;4840755;29;20046;-62
2022/04/07 01:09:28;;;;;;;6.03;3.42;;;;;;;-148.16;100.00;58328.31;4827209;29;20050;-64
2022/04/07 01:12:13;;;;;;;6.03;3.55;;;;;;;-148.16;100.00;58328.31;4832923;29;20091;-62
2022/04/07 01:15:00;;;;;;;6.60;3.53;;;;;;;-148.16;100.00;58328.31;4842516;29;20101;-64
2022/04/07 01:17:45;;;;;;;4.70;3.58;;;;;;;-148.16;100.00;58328.31;4830235;29;20042;-63
2022/04/07 01:20:31;;;;;;;4.55;3.10;;;;;;;-148.16;100.00;58328.31;4844059;29;20075;-62
2022/04/07 01:23:16;;;;;;;7.28;2.95;;;;;;;-148.16;100.00;58328.31;4830220;29;20094;-63
2022/04/07 01:26:08;;;;;;;5.75;3.15;;;;;;;-148.16;100.00;58328.31;4825141;29;20529;-60
2022/04/07 01:28:53;;;;;;;;;;;;;;;-148.16;100.00;58328.31;4799553;29;20049;-62
2022/04/07 01:31:38;;;;;;;3.63;2.13;;;;;;;-148.16;100.00;58328.31;4842557;29;19924;-61
2022/04/07 01:34:23;;;;;;;3.90;2.28;;;;;;;-148.16;100.00;58328.31;4843763;29;20046;-62
2022/04/07 01:37:09;;;;;;;3.92;1.73;;;;;;;-148.16;100.00;58328.31;4829849;29;20447;-64
2022/04/07 01:39:54;;;;;;;3.20;1.73;;;;;;;-148.16;100.00;58328.31;4844137;29;20129;-62
2022/04/07 01:42:39;;;;;;;3.55;1.30;;;;;;;-148.16;100.00;58328.31;4843628;29;20045;-63
2022/04/07 01:45:25;;;;;;;2.47;1.38;;;;;;;-148.16;100.00;58328.31;4843743;29;20041;-62
2022/04/07 01:48:11;;;;;;;2.72;1.10;;;;;;;-148.16;100.00;58328.31;4843898;29;20046;-64
2022/04/07 01:50:57;;;;;;;2.05;0.93;;;;;;;-148.16;100.00;58328.31;4844420;29;20501;-63
2022/04/07 01:53:43;;;;;;;1.92;1.25;;;;;;;-148.16;100.00;58328.31;4844107;29;20042;-62
2022/04/07 01:56:28;;;;;;;2.35;0.98;;;;;;;-148.16;100.00;58328.31;4843720;29;20117;-62
2022/04/07 01:59:13;;;;;;;3.88;1.80;;;;;;;-148.16;100.00;58328.31;4829499;29;20499;-63
2022/04/07 02:01:58;;;;;;;2.90;1.40;;;;;;;-148.16;100.00;58328.31;4817086;29;20148;-62
2022/04/07 02:04:56;;;;;;;3.13;1.60;;;;;;;-148.16;100.00;58328.31;4819564;29;20085;-63
2022/04/07 02:07:43;;;;;;;2.95;1.20;;;;;;;-148.16;100.00;58328.31;4807582;29;20058;-63
2022/04/07 02:10:28;;;;;;;2.13;1.13;;;;;;;-148.16;100.00;58328.31;4793394;29;20051;-62
2022/04/07 02:13:14;;;;;;;1.85;1.02;;;;;;;-148.16;100.00;58328.31;4793488;29;20054;-63
2022/04/07 02:16:01;;;;;;;3.00;0.77;;;;;;;-148.16;100.00;58328.31;4806771;29;20058;-63
2022/04/07 02:18:45;;;;;;;1.02;0.70;;;;;;;-148.16;100.00;58328.31;4790869;29;20062;-64
2022/04/07 02:21:30;;;;;;;1.17;0.73;;;;;;;-148.16;100.00;58328.31;4821389;29;20053;-62
2022/04/07 02:24:15;;;;;;;1.40;0.65;;;;;;;-148.16;100.00;58328.31;4843557;29;20054;-62
2022/04/07 02:27:04;;;;;;;1.75;0.63;;;;;;;-148.16;100.00;58328.31;4818467;29;20269;-61
2022/04/07 02:29:49;;;;;;;1.25;0.80;;;;;;;-148.16;100.00;58328.31;4829640;29;20104;-62
2022/04/07 02:32:33;;;;;;;0.80;0.50;;;;;;;-148.16;100.00;58328.31;4843709;29;20049;-62
2022/04/07 02:35:18;;;;;;;2.22;0.63;;;;;;;-148.16;100.00;58328.31;4843692;29;20042;-64
2022/04/07 02:38:03;;;;;;;0.95;0.60;;;;;;;-148.16;100.00;58328.31;4829538;29;20049;-63
2022/04/07 02:40:48;;;;;;;0.90;0.52;;;;;;;-148.16;100.00;58328.31;4828858;29;20129;-64
2022/04/07 02:43:34;;;;;;;0.98;0.47;;;;;;;-148.16;100.00;58328.31;4816778;29;20042;-62
2022/04/07 02:46:19;;;;;;;1.45;0.57;;;;;;;-148.16;100.00;58328.31;4842803;29;20573;-63
2022/04/07 02:49:05;;;;;;;1.60;0.50;;;;;;;-148.16;100.00;58328.31;4816407;29;20495;-65
2022/04/07 02:51:50;;;;;;;0.90;0.63;;;;;;;-148.16;100.00;58328.31;4828648;29;20064;-63
2022/04/07 02:54:34;;;;;;;1.27;0.47;;;;;;;-148.16;100.00;58328.31;4843247;29;20057;-64
2022/04/07 02:57:23;;;;;;;1.05;0.40;;;;;;;-148.16;100.00;58328.31;4843169;29;20079;-67
2022/04/07 03:00:08;;;;;;;0.63;0.40;;;;;;;-148.16;100.00;58328.31;4840664;29;20114;-63
2022/04/07 03:02:53;;;;;;;0.82;0.40;;;;;;;-148.16;100.00;58328.31;4820834;29;20411;-63
2022/04/07 03:05:38;;;;;;;2.15;0.60;;;;;;;-148.16;100.00;58328.31;4799297;29;20049;-64
2022/04/07 03:08:23;;;;;;;0.88;0.43;;;;;;;-148.16;100.00;58328.31;4779173;29;20057;-62
2022/04/07 03:11:09;;;;;;;0.70;0.40;;;;;;;-148.16;100.00;58328.31;4818308;29;20403;-62
2022/04/07 03:13:53;;;;;;;1.40;0.40;;;;;;;-148.16;100.00;58328.31;4811447;29;20487;-61
2022/04/07 03:16:38;;;;;;;0.85;0.40;;;;;;;-148.16;100.00;58328.31;4808898;29;20047;-63
2022/04/07 03:19:23;;;;;;;0.50;0.32;;;;;;;-148.16;100.00;58328.31;4827745;29;20098;-64
2022/04/07 03:22:08;;;;;;;0.40;0.30;;;;;;;-148.16;100.00;58328.31;4836057;29;20464;-61
2022/04/07 03:24:52;;;;;;;0.75;0.43;;;;;;;-148.16;100.00;58328.31;4794444;29;20122;-63
2022/04/07 03:27:37;;;;;;;0.55;0.47;;;;;;;-148.16;100.00;58328.31;4841951;29;20076;-61
2022/04/07 03:30:22;;;;;;;2.15;0.40;;;;;;;-148.16;100.00;58328.31;4842064;29;20110;-63
2022/04/07 03:33:07;;;;;;;1.95;0.50;;;;;;;-148.16;100.00;58328.31;4842157;29;20574;-64
2022/04/07 03:35:52;;;;;;;1.38;0.50;;;;;;;-148.16;100.00;58328.31;4842353;29;20059;-64
2022/04/07 03:38:38;;;;;;;0.45;0.28;;;;;;;-148.16;100.00;58328.31;4842136;29;20042;-62
2022/04/07 03:41:22;;;;;;;0.77;0.40;;;;;;;-148.16;100.00;58328.31;4815064;29;20546;-63
2022/04/07 03:44:09;;;;;;;0.47;0.28;;;;;;;-148.16;100.00;58328.31;4841595;29;20056;-62
2022/04/07 03:46:54;;;;;;;1.15;0.30;;;;;;;-148.16;100.00;58328.31;4842383;29;20057;-63
2022/04/07 03:49:39;;;;;;;0.73;0.40;;;;;;;-148.16;100.00;58328.31;4842346;29;20098;-64
2022/04/07 03:52:24;;;;;;;0.50;0.22;;;;;;;-148.16;100.00;58328.31;4842031;29;20049;-64
2022/04/07 03:55:10;;;;;;;0.55;0.40;;;;;;;-148.16;100.00;58328.31;4827661;29;20425;-59
2022/04/07 03:57:55;;;;;;;2.05;0.32;;;;;;;-148.16;100.00;58328.31;4841313;29;20053;-61
2022/04/07 04:00:40;;;;;;;0.90;0.40;;;;;;;-148.16;100.00;58328.31;4841112;29;20471;-62
2022/04/07 04:03:25;;;;;;;0.43;0.25;;;;;;;-148.16;100.00;58328.31;4841673;29;20049;-63
2022/04/07 04:06:10;;;;;;;1.88;0.50;;;;;;;-148.16;100.00;58328.31;4841252;29;20062;-61
2022/04/07 04:08:54;;;;;;;1.75;0.55;;;;;;;-148.16;100.00;58328.31;4827976;29;20073;-62
2022/04/07 04:11:39;;;;;;;0.45;0.38;;;;;;;-148.16;100.00;58328.31;4841430;29;20149;-60
2022/04/07 04:14:24;;;;;;;2.88;0.50;;;;;;;-148.16;100.00;58328.31;4827478;29;20063;-62
2022/04/07 04:17:09;;;;;;;0.75;0.40;;;;;;;-148.16;100.00;58328.31;4841766;29;20054;-62
2022/04/07 04:19:54;;;;;;;0.90;0.50;;;;;;;-148.16;100.00;58328.31;4840771;29;20042;-62
2022/04/07 04:22:39;;;;;;;0.98;0.52;;;;;;;-148.16;100.00;58328.31;4820931;29;20053;-63
2022/04/07 04:25:23;;;;;;;2.28;0.40;;;;;;;-148.16;100.00;58328.31;4823377;29;20042;-62
2022/04/07 04:28:08;;;;;;;0.50;0.32;;;;;;;-148.16;100.00;58328.31;4811872;29;20517;-62
2022/04/07 04:30:53;;;;;;;2.47;0.40;;;;;;;-148.16;100.00;58328.31;4805195;29;20518;-61
2022/04/07 04:33:37;;;;;;;0.60;0.40;;;;;;;-148.16;100.00;58328.31;4778601;29;20047;-60
2022/04/07 04:36:23;;;;;;;0.85;0.50;;;;;;;-148.16;100.00;58328.31;4805750;29;20074;-60
2022/04/07 04:39:07;;;;;;;1.75;0.43;;;;;;;-148.16;100.00;58328.31;4805412;29;20047;-63
2022/04/07 04:41:52;;;;;;;1.13;0.43;;;;;;;-148.16;100.00;58328.31;4804815;29;20407;-63
2022/04/07 04:44:38;;;;;;;0.40;0.30;;;;;;;-148.16;100.00;58328.31;4807069;29;20126;-63
2022/04/07 04:47:22;;;;;;;0.38;0.22;;;;;;;-148.16;100.00;58328.31;4807056;29;20058;-60
2022/04/07 04:50:08;;;;;;;0.98;0.32;;;;;;;-148.16;100.00;58328.31;4823607;29;20080;-66
2022/04/07 04:52:52;;;;;;;0.85;0.30;;;;;;;-148.16;100.00;58328.31;4823390;29;20118;-61
2022/04/07 04:55:37;;;;;;;0.63;0.30;;;;;;;-148.16;100.00;58328.31;4823100;29;20046;-64
2022/04/07 04:58:22;;;;;;;1.98;0.30;;;;;;;-148.16;100.00;58328.31;4796955;29;20046;-65
2022/04/07 05:01:07;;;;;;;1.17;0.22;;;;;;;-148.16;100.00;58328.31;4823509;29;20479;-64
2022/04/07 05:03:53;;;;;;;0.70;0.30;;;;;;;-148.16;100.00;58328.31;4823145;29;20054;-61
2022/04/07 05:06:37;;;;;;;5.43;0.50;;;;;;;-148.16;100.00;58328.31;4823271;29;20046;-63
2022/04/07 05:09:22;;;;;;;1.13;0.40;;;;;;;-148.16;100.00;58328.31;4823222;29;20053;-61
2022/04/07 05:12:07;;;;;;;0.50;0.20;;;;;;;-148.16;100.00;58328.31;4809328;29;20046;-64
2022/04/07 05:14:52;;;;;;;0.25;0.13;;;;;;;-148.16;100.00;58328.31;4796495;29;20453;-61
2022/04/07 05:17:37;;;;;;;1.98;0.30;;;;;;;-148.16;100.00;58328.31;4796223;29;20057;-60
2022/04/07 05:20:22;;;;;;;0.90;0.22;;;;;;;-148.16;100.00;58328.31;4796793;29;20055;-62
2022/04/07 05:23:07;;;;;;;1.35;0.35;;;;;;;-148.16;100.00;58328.31;4823147;29;20451;-61
2022/04/07 05:25:51;;;;;;;0.30;0.20;;;;;;;-148.16;100.00;58328.31;4809405;29;20120;-62
2022/04/07 05:28:36;;;;;;;0.47;0.20;;;;;;;-148.16;100.00;58328.31;4808904;29;20452;-65
2022/04/07 05:31:21;;;;;;;1.77;0.30;;;;;;;-148.16;100.00;58328.31;4808643;29;20039;-63
2022/04/07 05:34:06;;;;;;;0.60;0.30;;;;;;;-148.16;100.00;58328.31;4804730;29;20050;-63
2022/04/07 05:36:51;;;;;;;0.55;0.25;;;;;;;-148.16;100.00;58328.31;4793491;29;20814;-63
2022/04/07 05:39:35;;;;;;;0.65;0.10;;;;;;;-148.16;100.00;58328.31;4798772;29;20053;-62
2022/04/07 05:42:20;;;;;;;0.52;0.20;;;;;;;-148.16;100.00;58328.31;4792974;29;20448;-63
2022/04/07 05:45:05;;;;;;;0.52;0.20;;;;;;;-148.16;100.00;58328.31;4804771;29;20164;-68
2022/04/07 05:47:50;;;;;;;2.38;0.40;;;;;;;-148.16;100.00;58328.31;4804785;29;20051;-66
2022/04/07 05:50:35;;;;;;;0.63;0.28;;;;;;;-148.16;100.00;58328.31;4804737;29;20487;-64
2022/04/07 05:53:20;;;;;;;2.10;0.32;;;;;;;-148.16;100.00;58328.31;4804657;29;20050;-62
2022/04/07 05:56:05;;;;;;;0.30;0.22;;;;;;;-148.16;100.00;58328.31;4823664;29;20076;-64
2022/04/07 05:58:49;;;;;;;1.88;0.30;;;;;;;-148.16;100.00;58328.31;4824066;29;20079;-64
2022/04/07 06:01:34;;;;;;;0.38;0.17;;;;;;;-148.16;100.00;58328.31;4809193;29;20054;-62
2022/04/07 06:04:19;;;;;;;1.30;0.28;;;;;;;-148.16;100.00;58328.31;4807712;29;20086;-65
2022/04/07 06:07:04;;;;;;;1.70;0.50;;;;;;;-148.16;100.00;58328.31;4816875;29;20050;-60
2022/04/07 06:09:49;;;;;;;1.08;0.40;;;;;;;-148.16;100.00;58328.31;4809141;29;20066;-65
2022/04/07 06:12:34;;;;;;;2.03;0.50;;;;;;;-148.16;100.00;58328.31;4820480;29;20486;-60
2022/04/07 06:15:19;;;;;;;0.70;0.30;;;;;;;-148.16;100.00;58328.31;4825635;29;20043;-65
2022/04/07 06:18:05;;;;;;;0.77;0.20;;;;;;;-148.16;100.00;58328.31;4825783;29;20103;-66
2022/04/07 06:20:50;;;;;;;1.23;0.25;;;;;;;-148.16;100.00;58328.31;4823372;29;20087;-65
2022/04/07 06:23:34;;;;;;;0.32;0.17;;;;;;;-148.16;100.00;58328.31;4821816;29;20467;-63
2022/04/07 06:26:19;;;;;;;0.65;0.10;;;;;;;-148.16;100.00;58328.31;4809263;29;20047;-68
2022/04/07 06:29:04;;;;;;;1.15;0.20;;;;;;;-148.16;100.00;58328.31;4807522;29;20070;-65
2022/04/07 06:31:49;;;;;;;0.65;0.20;;;;;;;-148.16;100.00;58328.31;4807392;29;20063;-65
2022/04/07 06:34:34;;;;;;;1.52;0.25;;;;;;;-148.16;100.00;58328.31;4811792;29;20065;-63
2022/04/07 06:37:19;;;;;;;2.28;0.20;;;;;;;-148.16;100.00;58328.31;4802706;29;20079;-63
2022/04/07 06:40:04;;;;;;;0.35;0.20;;;;;;;-148.16;100.00;58328.31;4819766;29;20045;-65
2022/04/07 06:42:50;;;;;;;2.00;0.50;;;;;;;-148.16;100.00;58328.31;4790145;29;20058;-66
2022/04/07 06:45:35;;;;;;;0.63;0.20;;;;;;;-148.16;100.00;58328.31;4802252;29;20067;-66
2022/04/07 06:48:19;;;;;;;0.52;0.20;;;;;;;-148.16;100.00;58328.31;4821088;29;20125;-63
2022/04/07 06:51:04;;;;;;;0.80;0.20;;;;;;;-148.16;100.00;58328.31;4795335;29;20146;-64
2022/04/07 06:53:49;;;;;;;0.90;0.40;;;;;;;-148.16;100.00;58328.31;4806628;29;20054;-62
2022/04/07 06:56:33;;;;;;;1.75;0.40;;;;;;;-148.16;100.00;58328.31;4807132;29;20058;-65
2022/04/07 06:59:18;;;;;;;2.38;0.40;;;;;;;-148.16;100.00;58328.31;4806998;29;20556;-61
2022/04/07 07:02:03;;;;;;;0.80;0.32;;;;;;;-148.16;100.00;58328.31;4806160;29;20495;-65
2022/04/07 07:04:47;;;;;;;0.85;0.25;;;;;;;-148.16;100.00;58328.31;4793034;29;20511;-63
2022/04/07 07:07:32;;;;;;;0.90;0.45;;;;;;;-148.16;100.00;58328.31;4793447;29;20050;-62
2022/04/07 07:10:22;;;;;;;1.38;0.40;;;;;;;-148.16;100.00;58328.31;4807016;29;20050;-66
2022/04/07 07:13:07;;;;;;;0.57;0.30;;;;;;;-148.16;100.00;58328.31;4793164;29;20054;-63
2022/04/07 07:15:52;;;;;;;1.05;0.50;;;;;;;-148.16;100.00;58328.31;4806488;29;20051;-61
2022/04/07 07:18:38;;;;;;;0.77;0.47;;;;;;;-148.16;100.00;58328.31;4806534;29;20055;-68
2022/04/07 07:21:23;;;;;;;0.52;0.35;;;;;;;-148.16;100.00;58328.31;4818782;29;20046;-63
2022/04/07 07:24:07;;;;;;;2.08;0.50;;;;;;;-148.16;100.00;58328.31;4841507;29;20071;-63
2022/04/07 07:26:52;;;;;;;0.70;0.50;;;;;;;-148.16;100.00;58328.31;4792808;29;20047;-62
2022/04/07 07:29:37;;;;;;;0.93;0.55;;;;;;;-148.16;100.00;58328.31;4806438;29;20051;-62
2022/04/07 07:32:21;;;;;;;3.25;0.50;;;;;;;-148.16;100.00;58328.31;4806020;29;20058;-62
2022/04/07 07:35:07;;;;;;;2.45;0.75;;;;;;;-148.16;100.00;58328.31;4806274;29;20104;-61
2022/04/07 07:37:55;;;;;;;1.10;0.60;;;;;;;-148.16;100.00;58328.31;4806256;29;20051;-61
2022/04/07 07:40:39;;;;;;;2.78;0.68;;;;;;;-148.16;100.00;58328.31;4806178;29;20458;-63
2022/04/07 07:43:24;;;;;;;2.03;0.88;;;;;;;-148.16;100.00;58328.31;4806882;29;20104;-66
2022/04/07 07:46:09;;;;;;;2.50;1.00;;;;;;;-148.16;100.00;58328.31;4806605;29;20051;-62
2022/04/07 07:48:53;;;;;;;1.15;0.77;;;;;;;-148.16;100.00;58328.31;4792276;29;20115;-61
2022/04/07 07:51:39;;;;;;;3.30;0.90;;;;;;;-148.16;100.00;58328.31;4805681;29;20043;-64
2022/04/07 07:54:23;;;;;;;2.97;0.80;;;;;;;-148.16;100.00;58328.31;4792301;29;20117;-67
2022/04/07 07:57:08;;;;;;;1.20;0.68;;;;;;;-148.16;100.00;58328.31;4792387;29;20039;-67
2022/04/07 07:59:53;;;;;;;1.65;0.95;;;;;;;-148.16;100.00;58328.31;4791654;29;20058;-66
2022/04/07 08:02:38;;;;;;;1.77;0.90;;;;;;;-148.16;100.00;58328.31;4805650;29;20043;-68
2022/04/07 08:05:23;;;;;;;3.40;1.10;;;;;;;-148.16;100.00;58328.31;4792033;29;20058;-67
2022/04/07 08:08:08;;;;;;;1.52;0.90;;;;;;;-148.16;100.00;58328.31;4805781;29;20062;-71
2022/04/07 08:52:03;;;;;;;2.80;2.03;;;;;;;13.25;71.53;97226.78;5093639;27;20125;-66
2022/04/07 08:54:48;;;;;;;4.13;1.90;;;;;;;13.39;70.98;97227.97;5073630;28;20060;-66
2022/04/07 08:57:33;;;;;;;3.03;1.45;;;;;;;13.59;69.36;97227.72;5089476;28;20089;-69
2022/04/07 09:00:17;;;;;;;4.18;1.90;;;;;;;14.04;66.25;97215.06;5090000;28;20072;-69
2022/04/07 09:03:02;;;;;;;2.53;1.60;;;;;;;15.33;59.82;97202.00;5076845;28;20046;-66
2022/04/07 09:05:58;;;;;;;3.65;1.38;;;;;;;15.47;59.13;97213.63;5074021;28;20036;-64
2022/04/07 09:08:43;;;;;;;1.77;1.20;;;;;;;16.04;54.97;97210.78;5089586;28;20044;-70
2022/04/07 09:11:28;;;;;;;1.67;1.00;;;;;;;15.33;56.19;97212.56;5074361;28;20402;-68
2022/04/07 09:14:14;;;;;;;1.67;1.15;;;;;;;14.64;59.04;97201.63;5074442;28;20036;-68
2022/04/07 09:16:59;;;;;;;1.92;1.20;;;;;;;14.38;58.28;97202.69;5091728;28;20158;-70
2022/04/07 09:19:49;;;;;;;1.80;1.00;;;;;;;14.48;57.67;97199.03;5074142;28;20655;-71
2022/04/07 09:22:33;;;;;;;1.55;0.98;;;;;;;15.26;55.15;97198.41;5071236;28;20063;-68
2022/04/07 09:25:18;;;;;;;1.67;0.77;;;;;;;15.27;54.36;97200.91;5090183;28;20115;-66
2022/04/07 09:28:03;;;;;;;1.45;0.82;;;;;;;14.62;55.76;97194.88;5073499;28;20044;-65
2022/04/07 09:30:51;;;;;;;2.03;1.20;;;;;;;14.46;56.88;97207.09;5073094;28;20040;-62
2022/04/07 09:33:36;;;;;;;2.83;1.10;;;;;;;14.81;57.60;97203.41;5088572;28;20036;-64
2022/04/07 09:36:22;;;;;;;2.05;0.68;;;;;;;14.47;56.69;97210.56;5074037;28;20047;-66
2022/04/07 09:39:07;;;;;;;1.10;0.80;;;;;;;14.69;56.54;97192.41;5088869;28;20046;-67
2022/04/07 09:41:51;;;;;;;2.08;0.63;;;;;;;15.89;53.76;97186.94;5088881;28;20048;-67
2022/04/07 09:44:39;;;;;;;1.67;1.05;;;;;;;17.10;49.94;97189.66;5073240;28;20550;-67
2022/04/07 09:47:37;;;;;;;1.75;0.90;;;;;;;17.15;49.11;97184.66;5088511;28;20040;-67
2022/04/07 09:50:23;;;;;;;2.47;0.90;;;;;;;17.22;48.57;97174.94;5073192;28;20066;-65
2022/04/07 09:53:09;;;;;;;1.38;0.80;;;;;;;17.67;47.63;97168.66;5088704;28;20101;-68
2022/04/07 09:55:55;;;;;;;1.63;0.88;;;;;;;17.48;48.14;97160.34;5072927;28;20457;-68
2022/04/07 09:58:39;;;;;;;1.65;0.90;;;;;;;16.94;49.57;97162.38;5088008;28;20395;-66
2022/04/07 10:01:24;;;;;;;1.25;0.80;;;;;;;17.36;48.07;97162.66;5070394;28;20048;-66
2022/04/07 10:04:10;;;;;;;0.80;0.52;;;;;;;18.32;45.18;97157.16;5074750;28;20044;-68
2022/04/07 10:06:55;;;;;;;1.40;0.50;;;;;;;19.03;42.83;97153.59;5059856;28;20044;-68
2022/04/07 10:09:42;;;;;;;0.95;0.50;;;;;;;19.11;43.33;97161.38;5076596;28;20041;-65
2022/04/07 10:12:32;;;;;;;1.75;0.70;;;;;;;19.42;40.82;97151.28;5074211;28;20056;-67
2022/04/07 10:15:18;;;;;;;1.10;0.52;;;;;;;20.04;39.40;97152.94;5074720;28;20144;-66
2022/04/07 10:18:09;;;;;;;1.65;0.45;;;;;;;19.65;40.89;97150.06;5075186;28;20048;-67
2022/04/07 10:20:57;;;;;;;1.33;0.70;;;;;;;19.42;40.96;97143.31;5077327;28;20033;-68
2022/04/07 10:23:50;;;;;;;0.90;0.50;;;;;;;20.14;40.02;97141.91;5095158;28;20391;-66
2022/04/07 10:26:35;;;;;;;2.20;0.50;;;;;;;20.54;38.83;97147.13;5094980;28;20056;-67
2022/04/07 10:29:22;;;;;;;1.75;0.70;;;;;;;19.46;40.70;97139.22;5079813;28;20093;-67
2022/04/07 10:32:12;;;;;;;1.33;0.75;;;;;;;19.03;41.37;97122.56;5095142;28;20055;-69
2022/04/07 10:34:58;;;;;;;2.00;0.70;;;;;;;20.97;38.11;97110.31;5094769;28;20050;-68
2022/04/07 10:37:47;;;;;;;1.00;0.50;;;;;;;22.68;33.78;97103.38;5079501;28;20040;-67
2022/04/07 10:40:50;;;;;;;0.90;0.50;;;;;;;20.95;33.50;97091.13;5079376;28;20506;-64
2022/04/07 10:43:38;;;;;;;0.60;0.30;;;;;;;20.27;34.80;97115.28;5094726;28;20403;-67
2022/04/07 10:46:22;;;;;;;0.38;0.35;;;;;;;19.90;35.65;97105.09;5079488;28;20113;-69
2022/04/07 10:49:11;;;;;;;1.13;0.60;;;;;;;19.78;35.75;97096.13;5094456;28;20178;-70
2022/04/07 10:51:58;;;;;;;0.90;0.50;;;;;;;19.70;36.16;97105.94;5094732;28;20066;-71
2022/04/07 10:55:09;;;;;;;0.90;0.50;;;;;;;19.90;36.12;97101.63;5094649;28;20063;-67
2022/04/07 10:58:11;;;;;;;0.32;0.20;;;;;;;19.82;34.95;97102.66;5064718;28;20062;-68
2022/04/07 11:00:55;;;;;;;2.50;0.68;;;;;;;19.78;35.65;97101.44;5094027;28;20497;-68
2022/04/07 11:03:42;;;;;;;0.52;0.30;;;;;;;19.52;36.83;97108.38;5079521;28;20486;-69
2022/04/07 11:06:27;;;;;;;0.80;0.60;;;;;;;20.20;35.17;97106.50;5079147;28;20062;-69
2022/04/07 11:09:13;;;;;;;0.60;0.50;;;;;;;20.39;35.43;97096.84;5086095;28;20062;-70
2022/04/07 11:12:08;;;;;;;0.50;0.40;;;;;;;20.58;35.17;97091.66;5073809;28;20097;-63
2022/04/07 11:15:10;;;;;;;1.52;0.50;;;;;;;20.64;35.07;97093.50;5074007;28;20659;-65
2022/04/07 11:17:57;;;;;;;;;;;;;;;20.30;35.83;97079.50;5087685;28;20052;-65
2022/04/07 11:21:01;;;;;;;3.00;0.50;;;;;;;20.40;36.01;97087.84;5093662;28;20336;-59
2022/04/07 11:23:48;;;;;;;0.60;0.40;;;;;;;19.06;38.84;97079.69;5063485;28;20040;-47
2022/04/07 11:26:34;;;;;;;0.98;0.45;;;;;;;19.66;37.26;97079.97;5093656;28;20484;-50
2022/04/07 11:29:32;;;;;;;1.83;0.60;;;;;;;19.80;39.14;97078.13;5093371;28;20475;-49
2022/04/07 11:32:17;;;;;;;2.55;0.50;;;;;;;20.49;35.91;97080.44;5093070;28;20040;-63
2022/04/07 11:35:13;;;;;;;1.67;0.60;;;;;;;21.56;34.59;97063.25;5073435;28;20535;-64
2022/04/07 11:37:58;;;;;;;0.65;0.40;;;;;;;21.26;33.83;97065.53;5079516;28;20529;-63
2022/04/07 11:41:04;;;;;;;0.85;0.40;;;;;;;21.53;32.94;97062.66;5093205;28;20044;-63
2022/04/07 11:43:51;;;;;;;1.10;0.65;;;;;;;20.99;32.37;97044.41;5080278;28;20052;-63
2022/04/07 11:46:36;;;;;;;1.05;0.40;;;;;;;20.75;33.08;97040.63;5093127;28;20093;-66
2022/04/07 11:49:23;;;;;;;2.85;0.43;;;;;;;21.74;31.81;97051.81;5093242;28;20047;-61
2022/04/07 11:52:07;;;;;;;0.73;0.40;;;;;;;20.30;32.26;97045.72;5077137;28;20044;-63
2022/04/07 11:54:54;;;;;;;0.82;0.38;;;;;;;20.78;31.98;97041.03;5057696;28;20044;-62
2022/04/07 11:57:41;;;;;;;0.80;0.30;;;;;;;20.98;31.10;97034.78;5089972;28;20043;-62
2022/04/07 12:00:30;;;;;;;0.55;0.28;;;;;;;21.60;30.48;97030.63;5092894;28;20047;-62
2022/04/07 12:03:15;;;;;;;1.00;0.22;;;;;;;20.28;31.48;97025.72;5043734;28;20044;-62
2022/04/07 12:06:00;;;;;;;0.95;0.30;;;;;;;20.43;32.85;97028.13;5077510;28;20062;-63
2022/04/07 12:08:45;;;;;;;0.75;0.30;;;;;;;21.19;32.22;97030.13;5077636;28;20044;-62
2022/04/07 12:11:32;;;;;;;1.10;0.30;;;;;;;21.81;30.51;97009.13;5059098;28;20051;-60
2022/04/07 12:14:21;;;;;;;0.50;0.20;;;;;;;22.06;30.54;97003.75;5078344;28;20366;-61
2022/04/07 12:17:09;;;;;;;1.02;0.28;;;;;;;22.75;29.34;96991.22;5076907;28;20056;-59
2022/04/07 12:19:53;;;;;;;3.10;0.50;;;;;;;22.07;29.65;97001.88;5092321;28;20036;-59
2022/04/07 12:22:38;;;;;;;0.98;0.40;;;;;;;22.22;30.73;96998.84;5092389;28;20040;-62
2022/04/07 12:25:25;;;;;;;0.90;0.40;;;;;;;21.58;29.85;96992.72;5092423;28;20483;-58
2022/04/07 12:28:17;;;;;;;0.40;0.20;;;;;;;21.56;29.60;96999.31;5077554;28;20146;-60
2022/04/07 12:31:01;;;;;;;0.40;0.10;;;;;;;21.27;30.68;96987.28;5092106;28;20101;-59
2022/04/07 12:33:49;;;;;;;2.40;0.20;;;;;;;21.35;29.58;96988.84;5092279;28;20137;-58
2022/04/07 12:36:37;;;;;;;0.25;0.13;;;;;;;21.39;29.32;96989.22;5062739;28;20123;-59
2022/04/07 12:39:27;;;;;;;2.63;0.28;;;;;;;21.89;28.67;96990.19;5076925;28;20047;-60
2022/04/07 12:42:12;;;;;;;0.70;0.20;;;;;;;21.66;28.97;96979.13;5062180;28;20036;-60
2022/04/07 12:45:05;;;;;;;5.20;0.30;;;;;;;20.99;30.45;96959.25;5092232;28;20040;-58
2022/04/07 12:48:06;;;;;;;0.35;0.10;;;;;;;21.55;29.66;96953.22;5091279;28;20383;-61
2022/04/07 12:50:51;;;;;;;0.52;0.17;;;;;;;21.15;30.25;96951.75;5076833;28;20056;-59
2022/04/07 12:53:38;;;;;;;1.67;0.30;;;;;;;21.00;30.45;96952.91;5092545;28;20048;-60
2022/04/07 12:56:27;;;;;;;0.90;0.30;;;;;;;21.61;29.50;96951.53;5056830;28;20044;-60
2022/04/07 12:59:15;;;;;;;1.05;0.20;;;;;;;21.44;30.14;96951.28;5085600;28;20040;-61
2022/04/07 13:01:59;;;;;;;2.65;0.15;;;;;;;21.23;30.51;96950.66;5091989;28;20072;-60
2022/04/07 13:04:54;;;;;;;0.85;0.20;;;;;;;-148.16;100.00;58328.31;5077747;28;20130;-60
2022/04/07 13:07:39;;;;;;;0.13;0.10;;;;;;;-148.16;100.00;58328.31;5091502;28;20041;-61
2022/04/07 13:10:25;;;;;;;2.10;0.25;;;;;;;-148.16;100.00;58328.31;5088770;28;20087;-62
2022/04/07 13:13:10;;;;;;;0.50;0.30;;;;;;;-148.16;100.00;58328.31;5091934;28;20065;-60
2022/04/07 13:15:55;;;;;;;2.28;0.20;;;;;;;-148.16;100.00;58328.31;5092061;28;20076;-60
2022/04/07 13:18:39;;;;;;;0.50;0.30;;;;;;;-148.16;100.00;58328.31;5092090;28;20048;-60
2022/04/07 13:21:25;;;;;;;0.73;0.10;;;;;;;-148.16;100.00;58328.31;5091549;28;20111;-62
2022/04/07 13:24:10;;;;;;;0.40;0.20;;;;;;;-148.16;100.00;58328.31;5076452;28;20074;-61